sensor_id;sensor_type;location;lat;lon;timestamp;P1;durP1;ratioP1;P2;durP2;ratioP2
5684;SDS011;2865;53.114;9.130;2023-04-25T00:02:04;9.00;;;5.67;;
5684;SDS011;2865;53.114;9.130;2023-04-25T00:04:30;9.63;;;6.03;;
5684;SDS011;2865;53.114;9.130;2023-04-25T00:06:55;12.17;;;5.33;;
5684;SDS011;2865;53.114;9.130;2023-04-25T00:09:21;18.23;;;5.70;;
5684;SDS011;2865;53.114;9.130;2023-04-25T00:11:47;18.03;;;5.97;;
5684;SDS011;2865;53.114;9.130;2023-04-25T00:14:12;18.87;;;4.87;;
5684;SDS011;2865;53.114;9.130;2023-04-25T00:16:37;15.00;;;5.20;;
5684;SDS011;2865;53.114;9.130;2023-04-25T00:19:03;12.33;;;5.17;;
5684;SDS011;2865;53.114;9.130;2023-04-25T00:21:28;15.60;;;4.70;;
5684;SDS011;2865;53.114;9.130;2023-04-25T00:23:54;12.70;;;5.40;;
5684;SDS011;2865;53.114;9.130;2023-04-25T00:26:19;10.63;;;4.63;;
5684;SDS011;2865;53.114;9.130;2023-04-25T00:28:45;15.40;;;5.03;;
5684;SDS011;2865;53.114;9.130;2023-04-25T00:31:10;9.90;;;4.87;;
5684;SDS011;2865;53.114;9.130;2023-04-25T00:33:35;20.53;;;5.23;;
5684;SDS011;2865;53.114;9.130;2023-04-25T00:36:00;16.63;;;4.93;;
5684;SDS011;2865;53.114;9.130;2023-04-25T00:38:26;14.57;;;4.90;;
5684;SDS011;2865;53.114;9.130;2023-04-25T00:40:51;9.73;;;4.67;;
5684;SDS011;2865;53.114;9.130;2023-04-25T00:43:16;13.63;;;5.13;;
5684;SDS011;2865;53.114;9.130;2023-04-25T00:45:42;14.83;;;5.13;;
5684;SDS011;2865;53.114;9.130;2023-04-25T00:48:07;27.93;;;7.03;;
5684;SDS011;2865;53.114;9.130;2023-04-25T00:50:33;19.80;;;5.40;;
5684;SDS011;2865;53.114;9.130;2023-04-25T00:52:57;14.50;;;4.80;;
5684;SDS011;2865;53.114;9.130;2023-04-25T00:55:23;10.70;;;4.40;;
5684;SDS011;2865;53.114;9.130;2023-04-25T00:57:48;13.03;;;4.53;;
5684;SDS011;2865;53.114;9.130;2023-04-25T01:00:14;25.47;;;5.40;;
5684;SDS011;2865;53.114;9.130;2023-04-25T01:02:40;24.87;;;5.37;;
5684;SDS011;2865;53.114;9.130;2023-04-25T01:05:05;17.93;;;5.00;;
5684;SDS011;2865;53.114;9.130;2023-04-25T01:07:30;18.77;;;4.43;;
5684;SDS011;2865;53.114;9.130;2023-04-25T01:09:55;19.80;;;5.13;;
5684;SDS011;2865;53.114;9.130;2023-04-25T01:12:21;16.37;;;4.80;;
5684;SDS011;2865;53.114;9.130;2023-04-25T01:14:46;16.83;;;4.93;;
5684;SDS011;2865;53.114;9.130;2023-04-25T01:17:11;18.03;;;5.00;;
5684;SDS011;2865;53.114;9.130;2023-04-25T01:19:36;10.73;;;4.83;;
5684;SDS011;2865;53.114;9.130;2023-04-25T01:22:02;31.43;;;5.50;;
5684;SDS011;2865;53.114;9.130;2023-04-25T01:24:27;28.10;;;5.40;;
5684;SDS011;2865;53.114;9.130;2023-04-25T01:26:53;21.33;;;5.33;;
5684;SDS011;2865;53.114;9.130;2023-04-25T01:29:19;24.13;;;4.87;;
5684;SDS011;2865;53.114;9.130;2023-04-25T01:31:44;22.23;;;5.40;;
5684;SDS011;2865;53.114;9.130;2023-04-25T01:34:09;21.90;;;4.97;;
5684;SDS011;2865;53.114;9.130;2023-04-25T01:36:34;15.57;;;4.80;;
5684;SDS011;2865;53.114;9.130;2023-04-25T01:38:59;15.40;;;5.33;;
5684;SDS011;2865;53.114;9.130;2023-04-25T01:41:25;15.60;;;4.13;;
5684;SDS011;2865;53.114;9.130;2023-04-25T01:43:50;21.00;;;6.70;;
5684;SDS011;2865;53.114;9.130;2023-04-25T01:46:16;22.00;;;5.63;;
5684;SDS011;2865;53.114;9.130;2023-04-25T01:48:40;12.87;;;5.40;;
5684;SDS011;2865;53.114;9.130;2023-04-25T01:51:06;15.50;;;4.80;;
5684;SDS011;2865;53.114;9.130;2023-04-25T01:53:31;16.10;;;4.77;;
5684;SDS011;2865;53.114;9.130;2023-04-25T01:55:56;16.60;;;4.60;;
5684;SDS011;2865;53.114;9.130;2023-04-25T01:58:22;21.80;;;5.23;;
5684;SDS011;2865;53.114;9.130;2023-04-25T02:00:47;15.43;;;4.23;;
5684;SDS011;2865;53.114;9.130;2023-04-25T02:03:12;25.97;;;6.83;;
5684;SDS011;2865;53.114;9.130;2023-04-25T02:05:38;19.77;;;4.80;;
5684;SDS011;2865;53.114;9.130;2023-04-25T02:08:04;19.20;;;5.57;;
5684;SDS011;2865;53.114;9.130;2023-04-25T02:10:29;10.97;;;3.87;;
5684;SDS011;2865;53.114;9.130;2023-04-25T02:12:55;14.17;;;4.47;;
5684;SDS011;2865;53.114;9.130;2023-04-25T02:15:20;16.87;;;4.07;;
5684;SDS011;2865;53.114;9.130;2023-04-25T02:17:45;15.37;;;4.23;;
5684;SDS011;2865;53.114;9.130;2023-04-25T02:20:11;11.07;;;5.00;;
5684;SDS011;2865;53.114;9.130;2023-04-25T02:22:36;18.10;;;5.10;;
5684;SDS011;2865;53.114;9.130;2023-04-25T02:25:02;13.10;;;4.20;;
5684;SDS011;2865;53.114;9.130;2023-04-25T02:27:27;17.30;;;5.90;;
5684;SDS011;2865;53.114;9.130;2023-04-25T02:29:52;16.83;;;4.50;;
5684;SDS011;2865;53.114;9.130;2023-04-25T02:32:18;17.70;;;4.97;;
5684;SDS011;2865;53.114;9.130;2023-04-25T02:34:43;13.77;;;4.53;;
5684;SDS011;2865;53.114;9.130;2023-04-25T02:37:08;17.17;;;4.97;;
5684;SDS011;2865;53.114;9.130;2023-04-25T02:39:34;17.90;;;4.83;;
5684;SDS011;2865;53.114;9.130;2023-04-25T02:41:59;16.60;;;4.70;;
5684;SDS011;2865;53.114;9.130;2023-04-25T02:44:24;14.30;;;4.87;;
5684;SDS011;2865;53.114;9.130;2023-04-25T02:46:49;16.80;;;4.90;;
5684;SDS011;2865;53.114;9.130;2023-04-25T02:49:15;16.73;;;5.20;;
5684;SDS011;2865;53.114;9.130;2023-04-25T02:51:40;15.80;;;4.33;;
5684;SDS011;2865;53.114;9.130;2023-04-25T02:54:06;17.97;;;5.33;;
5684;SDS011;2865;53.114;9.130;2023-04-25T02:56:31;21.40;;;6.40;;
5684;SDS011;2865;53.114;9.130;2023-04-25T02:58:56;19.80;;;5.17;;
5684;SDS011;2865;53.114;9.130;2023-04-25T03:01:22;20.53;;;5.63;;
5684;SDS011;2865;53.114;9.130;2023-04-25T03:03:48;15.07;;;5.20;;
5684;SDS011;2865;53.114;9.130;2023-04-25T03:06:13;20.67;;;5.53;;
5684;SDS011;2865;53.114;9.130;2023-04-25T03:08:38;17.93;;;4.80;;
5684;SDS011;2865;53.114;9.130;2023-04-25T03:11:04;17.13;;;4.33;;
5684;SDS011;2865;53.114;9.130;2023-04-25T03:13:29;11.93;;;4.80;;
5684;SDS011;2865;53.114;9.130;2023-04-25T03:15:55;18.07;;;5.20;;
5684;SDS011;2865;53.114;9.130;2023-04-25T03:18:20;18.80;;;4.73;;
5684;SDS011;2865;53.114;9.130;2023-04-25T03:20:45;15.80;;;5.40;;
5684;SDS011;2865;53.114;9.130;2023-04-25T03:23:11;21.87;;;5.00;;
5684;SDS011;2865;53.114;9.130;2023-04-25T03:25:36;17.70;;;4.80;;
5684;SDS011;2865;53.114;9.130;2023-04-25T03:28:01;18.10;;;4.77;;
5684;SDS011;2865;53.114;9.130;2023-04-25T03:30:27;10.03;;;4.60;;
5684;SDS011;2865;53.114;9.130;2023-04-25T03:32:52;10.10;;;5.47;;
5684;SDS011;2865;53.114;9.130;2023-04-25T03:35:17;16.40;;;4.97;;
5684;SDS011;2865;53.114;9.130;2023-04-25T03:37:43;10.83;;;4.87;;
5684;SDS011;2865;53.114;9.130;2023-04-25T03:40:10;11.70;;;5.10;;
5684;SDS011;2865;53.114;9.130;2023-04-25T03:42:35;21.67;;;6.37;;
5684;SDS011;2865;53.114;9.130;2023-04-25T03:45:01;18.13;;;5.10;;
5684;SDS011;2865;53.114;9.130;2023-04-25T03:47:26;13.00;;;4.50;;
5684;SDS011;2865;53.114;9.130;2023-04-25T03:49:51;20.33;;;6.07;;
5684;SDS011;2865;53.114;9.130;2023-04-25T03:52:17;20.83;;;5.07;;
5684;SDS011;2865;53.114;9.130;2023-04-25T03:54:42;14.43;;;4.10;;
5684;SDS011;2865;53.114;9.130;2023-04-25T03:57:07;11.33;;;4.20;;
5684;SDS011;2865;53.114;9.130;2023-04-25T03:59:33;20.07;;;5.30;;
5684;SDS011;2865;53.114;9.130;2023-04-25T04:01:58;16.03;;;5.40;;
5684;SDS011;2865;53.114;9.130;2023-04-25T04:04:23;15.00;;;4.80;;
5684;SDS011;2865;53.114;9.130;2023-04-25T04:06:48;13.40;;;4.83;;
5684;SDS011;2865;53.114;9.130;2023-04-25T04:09:14;15.93;;;4.40;;
5684;SDS011;2865;53.114;9.130;2023-04-25T04:11:39;10.53;;;4.50;;
5684;SDS011;2865;53.114;9.130;2023-04-25T04:14:06;9.97;;;4.30;;
5684;SDS011;2865;53.114;9.130;2023-04-25T04:16:31;12.90;;;4.40;;
5684;SDS011;2865;53.114;9.130;2023-04-25T04:18:56;17.90;;;4.00;;
5684;SDS011;2865;53.114;9.130;2023-04-25T04:21:21;20.07;;;5.80;;
5684;SDS011;2865;53.114;9.130;2023-04-25T04:23:47;12.80;;;5.50;;
5684;SDS011;2865;53.114;9.130;2023-04-25T04:26:12;20.97;;;5.93;;
5684;SDS011;2865;53.114;9.130;2023-04-25T04:28:37;11.60;;;4.40;;
5684;SDS011;2865;53.114;9.130;2023-04-25T04:31:03;8.10;;;4.13;;
5684;SDS011;2865;53.114;9.130;2023-04-25T04:33:28;8.37;;;4.03;;
5684;SDS011;2865;53.114;9.130;2023-04-25T04:35:53;12.50;;;4.43;;
5684;SDS011;2865;53.114;9.130;2023-04-25T04:38:19;15.50;;;4.10;;
5684;SDS011;2865;53.114;9.130;2023-04-25T04:40:44;22.67;;;5.47;;
5684;SDS011;2865;53.114;9.130;2023-04-25T04:43:09;10.40;;;4.27;;
5684;SDS011;2865;53.114;9.130;2023-04-25T04:45:35;11.73;;;3.93;;
5684;SDS011;2865;53.114;9.130;2023-04-25T04:48:00;12.63;;;4.30;;
5684;SDS011;2865;53.114;9.130;2023-04-25T04:50:25;16.17;;;4.30;;
5684;SDS011;2865;53.114;9.130;2023-04-25T04:52:51;8.00;;;4.80;;
5684;SDS011;2865;53.114;9.130;2023-04-25T04:55:17;17.93;;;4.70;;
5684;SDS011;2865;53.114;9.130;2023-04-25T04:57:42;9.67;;;4.03;;
5684;SDS011;2865;53.114;9.130;2023-04-25T05:00:07;11.23;;;3.93;;
5684;SDS011;2865;53.114;9.130;2023-04-25T05:02:34;12.80;;;4.40;;
5684;SDS011;2865;53.114;9.130;2023-04-25T05:05:00;10.70;;;3.87;;
5684;SDS011;2865;53.114;9.130;2023-04-25T05:07:25;10.03;;;3.83;;
5684;SDS011;2865;53.114;9.130;2023-04-25T05:09:50;15.57;;;4.10;;
5684;SDS011;2865;53.114;9.130;2023-04-25T05:12:16;16.50;;;4.03;;
5684;SDS011;2865;53.114;9.130;2023-04-25T05:14:41;11.03;;;5.37;;
5684;SDS011;2865;53.114;9.130;2023-04-25T05:17:06;10.13;;;4.10;;
5684;SDS011;2865;53.114;9.130;2023-04-25T05:19:32;14.10;;;4.77;;
5684;SDS011;2865;53.114;9.130;2023-04-25T05:21:57;12.17;;;3.47;;
5684;SDS011;2865;53.114;9.130;2023-04-25T05:24:22;16.53;;;4.50;;
5684;SDS011;2865;53.114;9.130;2023-04-25T05:26:47;6.23;;;3.70;;
5684;SDS011;2865;53.114;9.130;2023-04-25T05:29:13;16.40;;;4.93;;
5684;SDS011;2865;53.114;9.130;2023-04-25T05:31:38;17.83;;;4.43;;
5684;SDS011;2865;53.114;9.130;2023-04-25T05:34:03;15.33;;;4.37;;
5684;SDS011;2865;53.114;9.130;2023-04-25T05:36:29;13.23;;;4.47;;
5684;SDS011;2865;53.114;9.130;2023-04-25T05:38:54;16.20;;;4.60;;
5684;SDS011;2865;53.114;9.130;2023-04-25T05:41:19;8.93;;;4.20;;
5684;SDS011;2865;53.114;9.130;2023-04-25T05:43:44;8.13;;;3.50;;
5684;SDS011;2865;53.114;9.130;2023-04-25T05:46:10;13.17;;;4.63;;
5684;SDS011;2865;53.114;9.130;2023-04-25T05:48:35;7.90;;;3.93;;
5684;SDS011;2865;53.114;9.130;2023-04-25T05:51:00;7.10;;;3.10;;
5684;SDS011;2865;53.114;9.130;2023-04-25T05:53:26;13.53;;;4.77;;
5684;SDS011;2865;53.114;9.130;2023-04-25T05:55:51;16.70;;;4.37;;
5684;SDS011;2865;53.114;9.130;2023-04-25T05:58:16;9.70;;;3.83;;
5684;SDS011;2865;53.114;9.130;2023-04-25T06:00:41;15.53;;;4.40;;
5684;SDS011;2865;53.114;9.130;2023-04-25T06:03:07;14.10;;;4.23;;
5684;SDS011;2865;53.114;9.130;2023-04-25T06:05:32;7.63;;;3.80;;
5684;SDS011;2865;53.114;9.130;2023-04-25T06:07:58;11.90;;;4.40;;
5684;SDS011;2865;53.114;9.130;2023-04-25T06:10:23;20.23;;;4.43;;
5684;SDS011;2865;53.114;9.130;2023-04-25T06:12:48;13.00;;;4.97;;
5684;SDS011;2865;53.114;9.130;2023-04-25T06:15:14;13.63;;;3.70;;
5684;SDS011;2865;53.114;9.130;2023-04-25T06:17:39;15.97;;;4.60;;
5684;SDS011;2865;53.114;9.130;2023-04-25T06:20:05;11.63;;;4.07;;
5684;SDS011;2865;53.114;9.130;2023-04-25T06:22:31;8.87;;;3.57;;
5684;SDS011;2865;53.114;9.130;2023-04-25T06:24:56;12.97;;;4.40;;
5684;SDS011;2865;53.114;9.130;2023-04-25T06:27:22;18.77;;;4.93;;
5684;SDS011;2865;53.114;9.130;2023-04-25T06:29:48;10.53;;;4.30;;
5684;SDS011;2865;53.114;9.130;2023-04-25T06:32:13;12.20;;;4.20;;
5684;SDS011;2865;53.114;9.130;2023-04-25T06:34:38;21.63;;;3.97;;
5684;SDS011;2865;53.114;9.130;2023-04-25T06:37:04;15.47;;;3.87;;
5684;SDS011;2865;53.114;9.130;2023-04-25T06:39:29;7.93;;;4.50;;
5684;SDS011;2865;53.114;9.130;2023-04-25T06:41:54;12.10;;;5.37;;
5684;SDS011;2865;53.114;9.130;2023-04-25T06:44:19;12.87;;;4.60;;
5684;SDS011;2865;53.114;9.130;2023-04-25T06:46:45;9.13;;;3.67;;
5684;SDS011;2865;53.114;9.130;2023-04-25T06:49:10;10.00;;;3.63;;
5684;SDS011;2865;53.114;9.130;2023-04-25T06:51:36;16.77;;;3.50;;
5684;SDS011;2865;53.114;9.130;2023-04-25T06:54:01;14.20;;;3.10;;
5684;SDS011;2865;53.114;9.130;2023-04-25T06:56:26;15.37;;;4.00;;
5684;SDS011;2865;53.114;9.130;2023-04-25T06:58:51;7.43;;;3.53;;
5684;SDS011;2865;53.114;9.130;2023-04-25T07:01:17;5.50;;;3.33;;
5684;SDS011;2865;53.114;9.130;2023-04-25T07:03:42;4.50;;;3.33;;
5684;SDS011;2865;53.114;9.130;2023-04-25T07:06:07;5.80;;;3.13;;
5684;SDS011;2865;53.114;9.130;2023-04-25T07:08:33;8.30;;;3.80;;
5684;SDS011;2865;53.114;9.130;2023-04-25T07:10:58;9.30;;;3.23;;
5684;SDS011;2865;53.114;9.130;2023-04-25T07:13:23;6.80;;;3.20;;
5684;SDS011;2865;53.114;9.130;2023-04-25T07:15:48;7.77;;;3.40;;
5684;SDS011;2865;53.114;9.130;2023-04-25T07:18:14;6.47;;;2.97;;
5684;SDS011;2865;53.114;9.130;2023-04-25T07:20:39;7.70;;;2.67;;
5684;SDS011;2865;53.114;9.130;2023-04-25T07:23:05;5.70;;;2.87;;
5684;SDS011;2865;53.114;9.130;2023-04-25T07:25:31;6.53;;;3.33;;
5684;SDS011;2865;53.114;9.130;2023-04-25T07:27:56;17.57;;;3.37;;
5684;SDS011;2865;53.114;9.130;2023-04-25T07:30:21;4.93;;;2.87;;
5684;SDS011;2865;53.114;9.130;2023-04-25T07:32:47;13.97;;;3.73;;
5684;SDS011;2865;53.114;9.130;2023-04-25T07:35:12;8.50;;;3.67;;
5684;SDS011;2865;53.114;9.130;2023-04-25T07:37:37;6.60;;;3.20;;
5684;SDS011;2865;53.114;9.130;2023-04-25T07:40:03;4.40;;;2.30;;
5684;SDS011;2865;53.114;9.130;2023-04-25T07:42:29;7.40;;;2.87;;
5684;SDS011;2865;53.114;9.130;2023-04-25T07:44:54;5.40;;;2.60;;
5684;SDS011;2865;53.114;9.130;2023-04-25T07:47:20;4.93;;;2.47;;
5684;SDS011;2865;53.114;9.130;2023-04-25T07:49:45;11.53;;;3.60;;
5684;SDS011;2865;53.114;9.130;2023-04-25T07:52:10;4.80;;;2.67;;
5684;SDS011;2865;53.114;9.130;2023-04-25T07:54:35;12.17;;;3.20;;
5684;SDS011;2865;53.114;9.130;2023-04-25T07:57:01;9.20;;;2.73;;
5684;SDS011;2865;53.114;9.130;2023-04-25T07:59:26;7.77;;;2.23;;
5684;SDS011;2865;53.114;9.130;2023-04-25T08:01:51;4.63;;;2.37;;
5684;SDS011;2865;53.114;9.130;2023-04-25T08:04:17;14.40;;;4.03;;
5684;SDS011;2865;53.114;9.130;2023-04-25T08:06:42;13.67;;;3.83;;
5684;SDS011;2865;53.114;9.130;2023-04-25T08:09:07;6.93;;;2.60;;
5684;SDS011;2865;53.114;9.130;2023-04-25T08:11:33;9.87;;;2.80;;
5684;SDS011;2865;53.114;9.130;2023-04-25T08:13:58;9.27;;;2.97;;
5684;SDS011;2865;53.114;9.130;2023-04-25T08:16:23;9.13;;;3.30;;
5684;SDS011;2865;53.114;9.130;2023-04-25T08:18:50;7.10;;;2.70;;
5684;SDS011;2865;53.114;9.130;2023-04-25T08:21:14;10.10;;;2.73;;
5684;SDS011;2865;53.114;9.130;2023-04-25T08:23:40;10.80;;;3.20;;
5684;SDS011;2865;53.114;9.130;2023-04-25T08:26:05;13.70;;;3.90;;
5684;SDS011;2865;53.114;9.130;2023-04-25T08:28:31;9.63;;;3.00;;
5684;SDS011;2865;53.114;9.130;2023-04-25T08:30:56;8.53;;;2.67;;
5684;SDS011;2865;53.114;9.130;2023-04-25T08:33:21;8.60;;;3.07;;
5684;SDS011;2865;53.114;9.130;2023-04-25T08:35:47;2.97;;;2.67;;
5684;SDS011;2865;53.114;9.130;2023-04-25T08:38:12;10.90;;;3.07;;
5684;SDS011;2865;53.114;9.130;2023-04-25T08:40:38;4.90;;;2.83;;
5684;SDS011;2865;53.114;9.130;2023-04-25T08:43:03;8.70;;;2.80;;
5684;SDS011;2865;53.114;9.130;2023-04-25T08:45:28;6.93;;;2.40;;
5684;SDS011;2865;53.114;9.130;2023-04-25T08:47:53;8.40;;;2.93;;
5684;SDS011;2865;53.114;9.130;2023-04-25T08:50:19;5.90;;;2.27;;
5684;SDS011;2865;53.114;9.130;2023-04-25T08:52:44;5.77;;;2.70;;
5684;SDS011;2865;53.114;9.130;2023-04-25T08:55:09;5.40;;;2.30;;
5684;SDS011;2865;53.114;9.130;2023-04-25T08:57:34;4.20;;;2.30;;
5684;SDS011;2865;53.114;9.130;2023-04-25T09:00:00;12.03;;;3.73;;
5684;SDS011;2865;53.114;9.130;2023-04-25T09:02:26;6.30;;;2.37;;
5684;SDS011;2865;53.114;9.130;2023-04-25T09:04:51;2.33;;;1.90;;
5684;SDS011;2865;53.114;9.130;2023-04-25T09:07:16;2.80;;;2.20;;
5684;SDS011;2865;53.114;9.130;2023-04-25T09:09:41;6.13;;;2.30;;
5684;SDS011;2865;53.114;9.130;2023-04-25T09:12:07;4.93;;;2.00;;
5684;SDS011;2865;53.114;9.130;2023-04-25T09:14:32;6.63;;;2.20;;
5684;SDS011;2865;53.114;9.130;2023-04-25T09:16:59;6.90;;;2.03;;
5684;SDS011;2865;53.114;9.130;2023-04-25T09:19:39;6.27;;;2.10;;
5684;SDS011;2865;53.114;9.130;2023-04-25T09:22:04;10.90;;;2.27;;
5684;SDS011;2865;53.114;9.130;2023-04-25T09:24:33;11.70;;;2.50;;
5684;SDS011;2865;53.114;9.130;2023-04-25T09:26:58;7.00;;;2.23;;
5684;SDS011;2865;53.114;9.130;2023-04-25T09:29:28;5.60;;;2.23;;
5684;SDS011;2865;53.114;9.130;2023-04-25T09:31:53;5.77;;;2.40;;
5684;SDS011;2865;53.114;9.130;2023-04-25T09:34:18;3.83;;;1.97;;
5684;SDS011;2865;53.114;9.130;2023-04-25T09:36:44;3.57;;;2.20;;
5684;SDS011;2865;53.114;9.130;2023-04-25T09:39:12;6.80;;;2.17;;
5684;SDS011;2865;53.114;9.130;2023-04-25T09:41:37;6.47;;;2.40;;
5684;SDS011;2865;53.114;9.130;2023-04-25T09:43:59;9.63;;;2.53;;
5684;SDS011;2865;53.114;9.130;2023-04-25T09:46:25;3.17;;;1.70;;
5684;SDS011;2865;53.114;9.130;2023-04-25T09:48:50;2.40;;;1.90;;
5684;SDS011;2865;53.114;9.130;2023-04-25T09:51:15;4.80;;;2.20;;
5684;SDS011;2865;53.114;9.130;2023-04-25T09:53:44;3.43;;;1.83;;
5684;SDS011;2865;53.114;9.130;2023-04-25T09:56:09;5.43;;;2.20;;
5684;SDS011;2865;53.114;9.130;2023-04-25T09:58:34;2.40;;;1.73;;
5684;SDS011;2865;53.114;9.130;2023-04-25T10:01:01;3.13;;;2.07;;
5684;SDS011;2865;53.114;9.130;2023-04-25T10:03:25;2.37;;;2.00;;
5684;SDS011;2865;53.114;9.130;2023-04-25T10:05:50;2.83;;;2.00;;
5684;SDS011;2865;53.114;9.130;2023-04-25T10:08:15;4.70;;;2.37;;
5684;SDS011;2865;53.114;9.130;2023-04-25T10:10:41;6.73;;;2.87;;
5684;SDS011;2865;53.114;9.130;2023-04-25T10:13:06;3.53;;;2.50;;
5684;SDS011;2865;53.114;9.130;2023-04-25T10:15:34;1.90;;;1.80;;
5684;SDS011;2865;53.114;9.130;2023-04-25T10:17:57;3.77;;;2.10;;
5684;SDS011;2865;53.114;9.130;2023-04-25T10:20:23;2.93;;;2.57;;
5684;SDS011;2865;53.114;9.130;2023-04-25T10:22:48;5.63;;;2.17;;
5684;SDS011;2865;53.114;9.130;2023-04-25T10:25:13;2.40;;;1.80;;
5684;SDS011;2865;53.114;9.130;2023-04-25T10:27:39;8.50;;;3.10;;
5684;SDS011;2865;53.114;9.130;2023-04-25T10:30:08;6.33;;;2.30;;
5684;SDS011;2865;53.114;9.130;2023-04-25T10:32:34;5.23;;;2.70;;
5684;SDS011;2865;53.114;9.130;2023-04-25T10:37:36;6.63;;;2.00;;
5684;SDS011;2865;53.114;9.130;2023-04-25T10:40:08;3.33;;;2.00;;
5684;SDS011;2865;53.114;9.130;2023-04-25T10:42:34;5.50;;;2.00;;
5684;SDS011;2865;53.114;9.130;2023-04-25T10:45:01;7.27;;;1.70;;
5684;SDS011;2865;53.114;9.130;2023-04-25T10:47:34;2.93;;;2.00;;
5684;SDS011;2865;53.114;9.130;2023-04-25T10:49:59;2.73;;;2.53;;
5684;SDS011;2865;53.114;9.130;2023-04-25T10:52:25;1.77;;;1.53;;
5684;SDS011;2865;53.114;9.130;2023-04-25T10:54:52;4.73;;;2.37;;
5684;SDS011;2865;53.114;9.130;2023-04-25T10:59:57;15.97;;;2.00;;
5684;SDS011;2865;53.114;9.130;2023-04-25T11:02:19;7.47;;;2.33;;
5684;SDS011;2865;53.114;9.130;2023-04-25T11:04:45;1.87;;;1.70;;
5684;SDS011;2865;53.114;9.130;2023-04-25T11:09:51;4.60;;;2.07;;
5684;SDS011;2865;53.114;9.130;2023-04-25T11:12:16;6.63;;;2.13;;
5684;SDS011;2865;53.114;9.130;2023-04-25T11:14:41;6.77;;;1.83;;
5684;SDS011;2865;53.114;9.130;2023-04-25T11:17:07;3.93;;;1.80;;
5684;SDS011;2865;53.114;9.130;2023-04-25T11:19:32;5.70;;;1.90;;
5684;SDS011;2865;53.114;9.130;2023-04-25T11:21:58;6.43;;;2.40;;
5684;SDS011;2865;53.114;9.130;2023-04-25T11:24:28;12.50;;;2.07;;
5684;SDS011;2865;53.114;9.130;2023-04-25T11:26:53;6.10;;;1.67;;
5684;SDS011;2865;53.114;9.130;2023-04-25T11:29:21;5.40;;;2.03;;
5684;SDS011;2865;53.114;9.130;2023-04-25T11:31:44;5.20;;;1.90;;
5684;SDS011;2865;53.114;9.130;2023-04-25T11:34:09;1.93;;;1.33;;
5684;SDS011;2865;53.114;9.130;2023-04-25T11:36:34;4.30;;;1.73;;
5684;SDS011;2865;53.114;9.130;2023-04-25T11:39:00;3.37;;;1.70;;
5684;SDS011;2865;53.114;9.130;2023-04-25T11:41:25;3.33;;;2.00;;
5684;SDS011;2865;53.114;9.130;2023-04-25T11:43:50;5.47;;;1.80;;
5684;SDS011;2865;53.114;9.130;2023-04-25T11:46:16;2.50;;;1.60;;
5684;SDS011;2865;53.114;9.130;2023-04-25T11:48:41;1.77;;;1.60;;
5684;SDS011;2865;53.114;9.130;2023-04-25T11:51:06;5.13;;;2.20;;
5684;SDS011;2865;53.114;9.130;2023-04-25T11:53:32;2.13;;;1.80;;
5684;SDS011;2865;53.114;9.130;2023-04-25T11:55:57;2.47;;;1.73;;
5684;SDS011;2865;53.114;9.130;2023-04-25T11:58:22;4.00;;;1.93;;
5684;SDS011;2865;53.114;9.130;2023-04-25T12:00:48;8.73;;;2.20;;
5684;SDS011;2865;53.114;9.130;2023-04-25T12:03:13;5.80;;;2.20;;
5684;SDS011;2865;53.114;9.130;2023-04-25T12:05:38;7.00;;;2.80;;
5684;SDS011;2865;53.114;9.130;2023-04-25T12:08:09;7.70;;;2.23;;
5684;SDS011;2865;53.114;9.130;2023-04-25T12:10:36;4.27;;;2.27;;
5684;SDS011;2865;53.114;9.130;2023-04-25T12:12:59;22.13;;;4.93;;
5684;SDS011;2865;53.114;9.130;2023-04-25T12:15:25;5.47;;;2.57;;
5684;SDS011;2865;53.114;9.130;2023-04-25T12:17:51;3.60;;;1.70;;
5684;SDS011;2865;53.114;9.130;2023-04-25T12:20:16;4.73;;;2.10;;
5684;SDS011;2865;53.114;9.130;2023-04-25T12:22:41;8.50;;;2.03;;
5684;SDS011;2865;53.114;9.130;2023-04-25T12:25:06;4.63;;;1.90;;
5684;SDS011;2865;53.114;9.130;2023-04-25T12:27:32;8.13;;;1.90;;
5684;SDS011;2865;53.114;9.130;2023-04-25T12:29:58;3.80;;;1.80;;
5684;SDS011;2865;53.114;9.130;2023-04-25T12:32:23;2.37;;;2.13;;
5684;SDS011;2865;53.114;9.130;2023-04-25T12:34:48;1.70;;;1.60;;
5684;SDS011;2865;53.114;9.130;2023-04-25T12:37:13;4.93;;;1.90;;
5684;SDS011;2865;53.114;9.130;2023-04-25T12:39:39;4.03;;;2.23;;
5684;SDS011;2865;53.114;9.130;2023-04-25T12:42:04;5.53;;;2.10;;
5684;SDS011;2865;53.114;9.130;2023-04-25T12:44:29;2.50;;;2.30;;
5684;SDS011;2865;53.114;9.130;2023-04-25T12:46:55;3.97;;;2.00;;
5684;SDS011;2865;53.114;9.130;2023-04-25T12:49:21;3.97;;;2.33;;
5684;SDS011;2865;53.114;9.130;2023-04-25T12:51:46;7.33;;;2.00;;
5684;SDS011;2865;53.114;9.130;2023-04-25T12:54:12;9.13;;;2.10;;
5684;SDS011;2865;53.114;9.130;2023-04-25T12:56:38;2.93;;;2.17;;
5684;SDS011;2865;53.114;9.130;2023-04-25T12:59:03;4.90;;;2.20;;
5684;SDS011;2865;53.114;9.130;2023-04-25T13:01:28;3.80;;;2.60;;
5684;SDS011;2865;53.114;9.130;2023-04-25T13:03:54;4.00;;;2.17;;
5684;SDS011;2865;53.114;9.130;2023-04-25T13:06:19;6.23;;;2.80;;
5684;SDS011;2865;53.114;9.130;2023-04-25T13:08:44;7.33;;;2.40;;
5684;SDS011;2865;53.114;9.130;2023-04-25T13:11:10;4.47;;;2.10;;
5684;SDS011;2865;53.114;9.130;2023-04-25T13:13:35;5.10;;;1.80;;
5684;SDS011;2865;53.114;9.130;2023-04-25T13:16:01;9.73;;;2.20;;
5684;SDS011;2865;53.114;9.130;2023-04-25T13:18:26;5.00;;;2.03;;
5684;SDS011;2865;53.114;9.130;2023-04-25T13:20:51;2.20;;;2.00;;
5684;SDS011;2865;53.114;9.130;2023-04-25T13:23:16;5.20;;;2.17;;
5684;SDS011;2865;53.114;9.130;2023-04-25T13:25:41;2.00;;;1.80;;
5684;SDS011;2865;53.114;9.130;2023-04-25T13:28:07;8.60;;;2.30;;
5684;SDS011;2865;53.114;9.130;2023-04-25T13:30:32;3.53;;;2.40;;
5684;SDS011;2865;53.114;9.130;2023-04-25T13:32:58;10.63;;;2.50;;
5684;SDS011;2865;53.114;9.130;2023-04-25T13:35:23;3.80;;;2.03;;
5684;SDS011;2865;53.114;9.130;2023-04-25T13:37:48;5.73;;;2.20;;
5684;SDS011;2865;53.114;9.130;2023-04-25T13:40:13;2.73;;;2.03;;
5684;SDS011;2865;53.114;9.130;2023-04-25T13:42:39;3.73;;;2.30;;
5684;SDS011;2865;53.114;9.130;2023-04-25T13:45:05;2.80;;;1.97;;
5684;SDS011;2865;53.114;9.130;2023-04-25T13:47:31;5.10;;;2.43;;
5684;SDS011;2865;53.114;9.130;2023-04-25T13:49:56;3.03;;;1.80;;
5684;SDS011;2865;53.114;9.130;2023-04-25T13:52:21;3.83;;;2.60;;
5684;SDS011;2865;53.114;9.130;2023-04-25T13:54:47;6.40;;;2.67;;
5684;SDS011;2865;53.114;9.130;2023-04-25T13:57:12;4.20;;;1.83;;
5684;SDS011;2865;53.114;9.130;2023-04-25T13:59:37;2.70;;;1.80;;
5684;SDS011;2865;53.114;9.130;2023-04-25T14:02:02;4.77;;;2.03;;
5684;SDS011;2865;53.114;9.130;2023-04-25T14:04:28;6.70;;;2.10;;
5684;SDS011;2865;53.114;9.130;2023-04-25T14:06:53;4.40;;;1.97;;
5684;SDS011;2865;53.114;9.130;2023-04-25T14:09:19;4.20;;;2.03;;
5684;SDS011;2865;53.114;9.130;2023-04-25T14:11:44;2.30;;;2.10;;
5684;SDS011;2865;53.114;9.130;2023-04-25T14:14:09;5.93;;;2.30;;
5684;SDS011;2865;53.114;9.130;2023-04-25T14:16:35;5.73;;;2.20;;
5684;SDS011;2865;53.114;9.130;2023-04-25T14:19:00;4.60;;;2.03;;
5684;SDS011;2865;53.114;9.130;2023-04-25T14:21:26;12.63;;;2.43;;
5684;SDS011;2865;53.114;9.130;2023-04-25T14:23:52;2.97;;;2.10;;
5684;SDS011;2865;53.114;9.130;2023-04-25T14:26:17;2.50;;;1.80;;
5684;SDS011;2865;53.114;9.130;2023-04-25T14:28:43;4.70;;;1.90;;
5684;SDS011;2865;53.114;9.130;2023-04-25T14:31:08;5.87;;;2.30;;
5684;SDS011;2865;53.114;9.130;2023-04-25T14:33:33;7.60;;;2.53;;
5684;SDS011;2865;53.114;9.130;2023-04-25T14:36:02;3.83;;;2.50;;
5684;SDS011;2865;53.114;9.130;2023-04-25T14:38:28;5.30;;;2.37;;
5684;SDS011;2865;53.114;9.130;2023-04-25T14:40:54;4.47;;;2.23;;
5684;SDS011;2865;53.114;9.130;2023-04-25T14:43:19;4.93;;;2.03;;
5684;SDS011;2865;53.114;9.130;2023-04-25T14:45:45;5.43;;;2.57;;
5684;SDS011;2865;53.114;9.130;2023-04-25T14:48:11;3.33;;;2.10;;
5684;SDS011;2865;53.114;9.130;2023-04-25T14:50:36;9.97;;;3.23;;
5684;SDS011;2865;53.114;9.130;2023-04-25T14:53:02;4.97;;;2.30;;
5684;SDS011;2865;53.114;9.130;2023-04-25T14:55:27;3.57;;;1.93;;
5684;SDS011;2865;53.114;9.130;2023-04-25T14:57:53;6.30;;;2.20;;
5684;SDS011;2865;53.114;9.130;2023-04-25T15:00:19;6.40;;;2.80;;
5684;SDS011;2865;53.114;9.130;2023-04-25T15:02:45;6.57;;;2.40;;
5684;SDS011;2865;53.114;9.130;2023-04-25T15:05:10;5.93;;;2.00;;
5684;SDS011;2865;53.114;9.130;2023-04-25T15:07:36;9.27;;;2.40;;